aviador You're here:

KJAN Decoded Metar

JACKSON in MS, USA
Report Time2018-05-27 00:54:00
UTC Time2018-05-27 01:07:00
Flight Rules vfr VFR
Wind180° at 05 kt
W.Decomp.*RWY 16: 4.7 kt HW 1.8 kt RCW
W.Rank180° ranks 4
Current wind is below 180° avg. (7.1)
Visibility9999 m
Phenomena:N/A
Clouds:Few 050 Hf
Broken 110 Hf
Expected CloudBase > 800 ft AGL from Temp-Dew spread
Ceiling11,000 ft
Temp23°C (ISA +9)
Dew Point21°C (89% RH)
QNH1012 hPa
Density Alt1,660 ft
Elevation299 ft
Report Wrong Elevation
Raw Report
KJAN 270054Z 18005KT 10SM FEW050 BKN110 23/21 A2987 RMK AO2 SLP110
T02280206=

Extra information for KJAN:More info

Metar Taf Metar & Taf Last 4 Metars F.Rules Stats Wind Profile Meteogram Temp Stats Airport Information Weather charts Add Link Nearby VenuesMetar ALERT Operation Metar Decoded Social comments

AIRNAV info for KJAN